^^
Saratoga-Weather Station Historical Data
Daily Summary for February 27, 2021 Units:  Metric    English   Both
Daily Weekly Monthly Yearly Custom
  High: Low: Average:
Temperature: 17.9 °C 7.8 °C 12.2 °C
Dew Point: 10.3 °C 6.9 °C 8.4 °C
Humidity: 95% 55% 79%
Wind Speed: 20.9km/h 0km/h 6.4km/h
Wind Gust: 27.4km/h - -
Wind- - West
Pressure: 1021.0 hPa 1016.3 hPa -
Precipitation: 0.0 mm    
Historical Graphs
 
 
Tabular Data for February 27, 2021
Time Temperature Dew Point Pressure Wind Wind Speed Wind Gust Humidity Rainfall Rate (Hourly) solar
00:01 9 °C 7.8 °C 1016.3 hPa West 6.4 km/h 16.1 km/h 92% 0.0 mm 0 W/m2
00:06 8.9 °C 7.7 °C 1016.3 hPa WSW 6.4 km/h 14.5 km/h 92% 0.0 mm 0 W/m2
00:11 8.9 °C 7.7 °C 1016.3 hPa WNW 4.7 km/h 16.1 km/h 92% 0.0 mm 0 W/m2
00:16 8.9 °C 7.7 °C 1016.6 hPa WNW 4.7 km/h 12.9 km/h 92% 0.0 mm 0 W/m2
00:21 8.8 °C 7.6 °C 1016.3 hPa West 1.4 km/h 12.9 km/h 92% 0.0 mm 0 W/m2
00:26 8.8 °C 7.6 °C 1016.6 hPa West 13 km/h 14.5 km/h 92% 0.0 mm 0 W/m2
00:31 8.8 °C 7.6 °C 1016.6 hPa West 3.2 km/h 11.3 km/h 92% 0.0 mm 0 W/m2
00:36 8.8 °C 7.6 °C 1016.6 hPa Calm   16.1 km/h 92% 0.0 mm 0 W/m2
00:41 8.7 °C 7.5 °C 1016.6 hPa WNW 3.2 km/h 9.7 km/h 92% 0.0 mm 0 W/m2
00:46 8.7 °C 7.5 °C 1016.6 hPa West 11.1 km/h 11.3 km/h 92% 0.0 mm 0 W/m2
00:51 8.6 °C 7.4 °C 1016.6 hPa SSE 14.3 km/h 14.5 km/h 92% 0.0 mm 0 W/m2
00:56 8.6 °C 7.4 °C 1016.6 hPa NW 4.7 km/h 14.5 km/h 92% 0.0 mm 0 W/m2
01:01 8.4 °C 7.3 °C 1016.6 hPa West 4.7 km/h 9.7 km/h 93% 0.0 mm 0 W/m2
01:06 8.4 °C 7.3 °C 1016.6 hPa WNW 3.2 km/h 12.9 km/h 93% 0.0 mm 0 W/m2
01:11 8.4 °C 7.3 °C 1016.6 hPa WSW 7.9 km/h 20.9 km/h 93% 0.0 mm 0 W/m2
01:16 8.4 °C 7.3 °C 1016.6 hPa NNW 3.2 km/h 14.5 km/h 93% 0.0 mm 0 W/m2
01:21 8.3 °C 7.2 °C 1016.6 hPa West 11.1 km/h 16.1 km/h 93% 0.0 mm 0 W/m2
01:26 8.3 °C 7.4 °C 1016.6 hPa West 4.7 km/h 11.3 km/h 94% 0.0 mm 0 W/m2
01:31 8.3 °C 7.2 °C 1016.6 hPa NW 6.4 km/h 6.4 km/h 93% 0.0 mm 0 W/m2
01:36 8.3 °C 7.2 °C 1016.9 hPa NW 4.7 km/h 12.9 km/h 93% 0.0 mm 0 W/m2
01:41 8.2 °C 7.1 °C 1016.6 hPa West 9.7 km/h 12.9 km/h 93% 0.0 mm 0 W/m2
01:46 8.2 °C 7.1 °C 1016.9 hPa NW 3.2 km/h 11.3 km/h 93% 0.0 mm 0 W/m2
01:51 8.1 °C 7.2 °C 1016.9 hPa SW 4.7 km/h 6.4 km/h 94% 0.0 mm 0 W/m2
01:56 8 °C 7.1 °C 1016.9 hPa West 13 km/h 16.1 km/h 94% 0.0 mm 0 W/m2
02:01 7.9 °C 7 °C 1016.9 hPa WNW 4.7 km/h 17.7 km/h 94% 0.0 mm 0 W/m2
02:06 7.9 °C 7 °C 1016.9 hPa WNW 3.2 km/h 11.3 km/h 94% 0.0 mm 0 W/m2
02:11 8 °C 7.1 °C 1016.9 hPa WSW 6.4 km/h 17.7 km/h 94% 0.0 mm 0 W/m2
02:16 8 °C 7.1 °C 1016.9 hPa WNW 4.7 km/h 12.9 km/h 94% 0.0 mm 0 W/m2
02:21 8 °C 7.1 °C 1016.9 hPa West 9.7 km/h 11.3 km/h 94% 0.0 mm 0 W/m2
02:26 8.1 °C 7.2 °C 1016.9 hPa WSW 11.1 km/h 11.3 km/h 94% 0.0 mm 0 W/m2
02:31 8.1 °C 7.2 °C 1016.9 hPa West 9.7 km/h 12.9 km/h 94% 0.0 mm 0 W/m2
02:36 8.1 °C 7.2 °C 1016.9 hPa WNW 3.2 km/h 9.7 km/h 94% 0.0 mm 0 W/m2
02:41 8.2 °C 7.3 °C 1016.9 hPa West 6.4 km/h 11.3 km/h 94% 0.0 mm 0 W/m2
02:46 8.2 °C 7.3 °C 1016.9 hPa WNW 3.2 km/h 9.7 km/h 94% 0.0 mm 0 W/m2
02:51 8.2 °C 7.3 °C 1016.9 hPa WNW 4.7 km/h 9.7 km/h 94% 0.0 mm 0 W/m2
02:56 8.3 °C 7.4 °C 1016.9 hPa WNW 1.4 km/h 6.4 km/h 94% 0.0 mm 0 W/m2
03:01 8.3 °C 7.4 °C 1016.9 hPa West 3.2 km/h 11.3 km/h 94% 0.0 mm 0 W/m2
03:06 8.3 °C 7.4 °C 1016.9 hPa SW 7.9 km/h 11.3 km/h 94% 0.0 mm 0 W/m2
03:11 8.3 °C 7.4 °C 1016.9 hPa West 4.7 km/h 4.8 km/h 94% 0.0 mm 0 W/m2
03:16 8.2 °C 7.3 °C 1016.9 hPa WNW 3.2 km/h 9.7 km/h 94% 0.0 mm 0 W/m2
03:21 8.2 °C 7.1 °C 1016.9 hPa West 4.7 km/h 4.8 km/h 93% 0.0 mm 0 W/m2
03:26 8.2 °C 7.3 °C 1016.9 hPa West 6.4 km/h 9.7 km/h 94% 0.0 mm 0 W/m2
03:31 8.2 °C 7.3 °C 1016.9 hPa WSW 3.2 km/h 8 km/h 94% 0.0 mm 0 W/m2
03:36 8.2 °C 7.3 °C 1016.9 hPa West 4.7 km/h 8 km/h 94% 0.0 mm 0 W/m2
03:41 8.2 °C 7.3 °C 1016.9 hPa Calm   9.7 km/h 94% 0.0 mm 0 W/m2
03:46 8.2 °C 7.3 °C 1016.9 hPa West 3.2 km/h 6.4 km/h 94% 0.0 mm 0 W/m2
03:51 8.2 °C 7.3 °C 1017.3 hPa WNW 4.7 km/h 6.4 km/h 94% 0.0 mm 0 W/m2
03:56 8.3 °C 7.4 °C 1016.9 hPa West 1.4 km/h 9.7 km/h 94% 0.0 mm 0 W/m2
04:01 8.3 °C 7.4 °C 1016.9 hPa West 1.4 km/h 3.2 km/h 94% 0.0 mm 0 W/m2
04:06 8.3 °C 7.4 °C 1016.9 hPa West 1.4 km/h 6.4 km/h 94% 0.0 mm 0 W/m2
04:11 8.3 °C 7.4 °C 1016.9 hPa West 3.2 km/h 6.4 km/h 94% 0.0 mm 0 W/m2
04:16 8.3 °C 7.4 °C 1016.9 hPa WSW 4.7 km/h 6.4 km/h 94% 0.0 mm 0 W/m2
04:21 8.3 °C 7.4 °C 1016.9 hPa WNW 1.4 km/h 3.2 km/h 94% 0.0 mm 0 W/m2
04:26 8.3 °C 7.4 °C 1016.9 hPa West 1.4 km/h 6.4 km/h 94% 0.0 mm 0 W/m2
04:31 8.2 °C 7.3 °C 1016.9 hPa WSW 6.4 km/h 16.1 km/h 94% 0.0 mm 0 W/m2
04:36 8.2 °C 7.3 °C 1016.9 hPa West 4.7 km/h 6.4 km/h 94% 0.0 mm 0 W/m2
04:41 8.2 °C 7.3 °C 1016.9 hPa SSW 7.9 km/h 9.7 km/h 94% 0.0 mm 0 W/m2
04:46 8.1 °C 7.2 °C 1016.9 hPa WNW 4.7 km/h 11.3 km/h 94% 0.0 mm 0 W/m2
04:51 8 °C 7.1 °C 1016.9 hPa West 9.7 km/h 11.3 km/h 94% 0.0 mm 0 W/m2
04:56 7.9 °C 7 °C 1016.9 hPa West 4.7 km/h 4.8 km/h 94% 0.0 mm 0 W/m2
05:01 7.9 °C 7 °C 1016.9 hPa West 9.7 km/h 9.7 km/h 94% 0.0 mm 0 W/m2
05:06 7.8 °C 6.9 °C 1016.9 hPa West 9.7 km/h 9.7 km/h 94% 0.0 mm 0 W/m2
05:11 7.8 °C 6.9 °C 1016.9 hPa West 13 km/h 16.1 km/h 94% 0.0 mm 0 W/m2
05:16 7.8 °C 6.9 °C 1016.9 hPa NW 6.4 km/h 14.5 km/h 94% 0.0 mm 0 W/m2
05:21 7.8 °C 6.9 °C 1016.9 hPa WNW 7.9 km/h 22.5 km/h 94% 0.0 mm 0 W/m2
05:26 7.8 °C 6.9 °C 1017.3 hPa WSW 11.1 km/h 16.1 km/h 94% 0.0 mm 0 W/m2
05:31 7.8 °C 6.9 °C 1016.9 hPa SW 7.9 km/h 17.7 km/h 94% 0.0 mm 0 W/m2
05:36 7.8 °C 6.9 °C 1017.3 hPa West 6.4 km/h 14.5 km/h 94% 0.0 mm 0 W/m2
05:41 7.8 °C 6.9 °C 1017.3 hPa WNW 4.7 km/h 11.3 km/h 94% 0.0 mm 0 W/m2
05:46 7.8 °C 6.9 °C 1017.3 hPa WNW 4.7 km/h 11.3 km/h 94% 0.0 mm 5 W/m2
05:51 7.8 °C 6.9 °C 1017.3 hPa WNW 6.4 km/h 6.4 km/h 94% 0.0 mm 7 W/m2
05:56 7.8 °C 7 °C 1017.3 hPa WSW 7.9 km/h 14.5 km/h 95% 0.0 mm 9 W/m2
06:01 7.9 °C 7.1 °C 1017.3 hPa West 6.4 km/h 22.5 km/h 95% 0.0 mm 11 W/m2
06:06 7.9 °C 7.1 °C 1017.3 hPa WSW 3.2 km/h 12.9 km/h 95% 0.0 mm 14 W/m2
06:11 7.9 °C 7.1 °C 1017.3 hPa West 11.1 km/h 17.7 km/h 95% 0.0 mm 18 W/m2
06:16 7.9 °C 7 °C 1017.3 hPa WNW 4.7 km/h 11.3 km/h 94% 0.0 mm 14 W/m2
06:21 7.9 °C 7 °C 1017.6 hPa WSW 7.9 km/h 16.1 km/h 94% 0.0 mm 14 W/m2
06:26 7.9 °C 7 °C 1017.6 hPa WNW 3.2 km/h 11.3 km/h 94% 0.0 mm 19 W/m2
06:31 7.9 °C 7 °C 1017.6 hPa WNW 4.7 km/h 16.1 km/h 94% 0.0 mm 19 W/m2
06:36 7.9 °C 7 °C 1017.6 hPa WNW 4.7 km/h 14.5 km/h 94% 0.0 mm 18 W/m2
06:41 7.9 °C 7 °C 1017.6 hPa West 11.1 km/h 12.9 km/h 94% 0.0 mm 18 W/m2
06:46 7.9 °C 7 °C 1017.6 hPa WSW 9.7 km/h 11.3 km/h 94% 0.0 mm 23 W/m2
06:51 7.9 °C 7 °C 1017.6 hPa West 11.1 km/h 16.1 km/h 94% 0.0 mm 40 W/m2
06:56 7.8 °C 6.9 °C 1017.6 hPa WNW 6.4 km/h 12.9 km/h 94% 0.0 mm 37 W/m2
07:01 7.9 °C 7 °C 1018.0 hPa WSW 3.2 km/h 16.1 km/h 94% 0.0 mm 39 W/m2
07:06 7.9 °C 7 °C 1018.0 hPa NW 3.2 km/h 12.9 km/h 94% 0.0 mm 49 W/m2
07:11 7.8 °C 6.9 °C 1018.0 hPa NW 7.9 km/h 14.5 km/h 94% 0.0 mm 39 W/m2
07:16 7.8 °C 6.9 °C 1018.0 hPa West 13 km/h 12.9 km/h 94% 0.0 mm 49 W/m2
07:21 7.8 °C 6.9 °C 1018.0 hPa WNW 1.4 km/h 9.7 km/h 94% 0.0 mm 65 W/m2
07:26 7.8 °C 6.9 °C 1018.0 hPa WSW 13 km/h 14.5 km/h 94% 0.0 mm 74 W/m2
07:31 7.8 °C 6.9 °C 1018.0 hPa West 4.7 km/h 12.9 km/h 94% 0.0 mm 83 W/m2
07:36 7.8 °C 6.9 °C 1018.0 hPa WNW 1.4 km/h 11.3 km/h 94% 0.0 mm 90 W/m2
07:41 7.9 °C 7 °C 1018.0 hPa West 3.2 km/h 6.4 km/h 94% 0.0 mm 93 W/m2
07:46 8.1 °C 7.2 °C 1018.3 hPa WNW 3.2 km/h 9.7 km/h 94% 0.0 mm 97 W/m2
07:52 8.1 °C 7 °C 1018.3 hPa SW 1.4 km/h 6.4 km/h 93% 0.0 mm 104 W/m2
07:57 8.2 °C 7.1 °C 1018.0 hPa Calm   3.2 km/h 93% 0.0 mm 113 W/m2
08:02 8.3 °C 7.2 °C 1018.0 hPa West 3.2 km/h 6.4 km/h 93% 0.0 mm 114 W/m2
08:07 8.3 °C 7.2 °C 1018.0 hPa Calm   3.2 km/h 93% 0.0 mm 118 W/m2
08:12 8.4 °C 7.2 °C 1018.0 hPa NW 1.4 km/h 4.8 km/h 92% 0.0 mm 125 W/m2
08:17 8.6 °C 7.4 °C 1018.3 hPa West 6.4 km/h 6.4 km/h 92% 0.0 mm 123 W/m2
08:22 8.6 °C 7.4 °C 1018.3 hPa WSW 3.2 km/h 4.8 km/h 92% 0.0 mm 116 W/m2
08:27 8.7 °C 7.5 °C 1018.3 hPa Calm   3.2 km/h 92% 0.0 mm 116 W/m2
08:32 8.8 °C 7.4 °C 1018.3 hPa Calm   4.8 km/h 91% 0.0 mm 121 W/m2
08:37 8.9 °C 7.5 °C 1018.3 hPa WNW 3.2 km/h 11.3 km/h 91% 0.0 mm 139 W/m2
08:42 9 °C 7.6 °C 1018.3 hPa SW 3.2 km/h 6.4 km/h 91% 0.0 mm 158 W/m2
08:47 9.1 °C 7.7 °C 1018.3 hPa NW 4.7 km/h 11.3 km/h 91% 0.0 mm 156 W/m2
08:52 9.2 °C 7.6 °C 1018.6 hPa NW 1.4 km/h 4.8 km/h 90% 0.0 mm 169 W/m2
08:57 9.2 °C 7.6 °C 1018.6 hPa WSW 11.1 km/h 12.9 km/h 90% 0.0 mm 183 W/m2
09:02 9.3 °C 7.6 °C 1018.6 hPa West 6.4 km/h 9.7 km/h 89% 0.0 mm 181 W/m2
09:07 9.4 °C 7.7 °C 1018.6 hPa WSW 1.4 km/h 12.9 km/h 89% 0.0 mm 192 W/m2
09:12 9.4 °C 7.7 °C 1018.6 hPa WSW 4.7 km/h 8 km/h 89% 0.0 mm 197 W/m2
09:17 9.5 °C 7.6 °C 1018.6 hPa NW 4.7 km/h 11.3 km/h 88% 0.0 mm 199 W/m2
09:22 9.6 °C 7.7 °C 1018.6 hPa West 1.4 km/h 12.9 km/h 88% 0.0 mm 206 W/m2
09:27 9.7 °C 7.8 °C 1018.6 hPa NW 6.4 km/h 11.3 km/h 88% 0.0 mm 216 W/m2
09:32 9.8 °C 7.9 °C 1019.0 hPa West 3.2 km/h 9.7 km/h 88% 0.0 mm 220 W/m2
09:37 9.8 °C 7.7 °C 1019.0 hPa WSW 3.2 km/h 4.8 km/h 87% 0.0 mm 239 W/m2
09:42 10 °C 7.9 °C 1019.0 hPa WSW 6.4 km/h 14.5 km/h 87% 0.0 mm 243 W/m2
09:47 10.1 °C 8 °C 1019.0 hPa Calm   4.8 km/h 87% 0.0 mm 246 W/m2
09:52 10.2 °C 8.1 °C 1018.6 hPa Calm   1.6 km/h 87% 0.0 mm 244 W/m2
09:57 10.4 °C 8.2 °C 1018.6 hPa WNW 4.7 km/h 11.3 km/h 86% 0.0 mm 192 W/m2
10:02 10.5 °C 8.3 °C 1019.0 hPa West 1.4 km/h 4.8 km/h 86% 0.0 mm 260 W/m2
10:07 10.8 °C 8.4 °C 1019.0 hPa West 13 km/h 20.9 km/h 85% 0.0 mm 434 W/m2
10:12 11.1 °C 8.5 °C 1019.0 hPa West 6.4 km/h 9.7 km/h 84% 0.0 mm 485 W/m2
10:17 11.3 °C 8.5 °C 1019.0 hPa NW 6.4 km/h 20.9 km/h 83% 0.0 mm 343 W/m2
10:22 11.5 °C 8.4 °C 1019.0 hPa North 6.4 km/h 12.9 km/h 81% 0.0 mm 656 W/m2
10:27 11.8 °C 8.6 °C 1019.0 hPa WNW 4.7 km/h 14.5 km/h 81% 0.0 mm 752 W/m2
10:32 12.1 °C 8.6 °C 1019.0 hPa NW 13 km/h 14.5 km/h 79% 0.0 mm 775 W/m2
10:37 12.4 °C 9.2 °C 1019.0 hPa NW 7.9 km/h 11.3 km/h 81% 0.0 mm 854 W/m2
10:42 12.5 °C 8.8 °C 1019.0 hPa SW 11.1 km/h 14.5 km/h 78% 0.0 mm 348 W/m2
10:47 12.4 °C 8.9 °C 1019.0 hPa West 11.1 km/h 11.3 km/h 79% 0.0 mm 279 W/m2
10:52 12.4 °C 8.9 °C 1019.0 hPa West 1.4 km/h 9.7 km/h 79% 0.0 mm 251 W/m2
10:57 12.3 °C 8.6 °C 1019.0 hPa WNW 6.4 km/h 16.1 km/h 78% 0.0 mm 329 W/m2
11:02 12.4 °C 8.9 °C 1019.0 hPa WSW 3.2 km/h 9.7 km/h 79% 0.0 mm 332 W/m2
11:07 12.5 °C 9 °C 1019.0 hPa West 9.7 km/h 11.3 km/h 79% 0.0 mm 322 W/m2
11:12 12.6 °C 8.9 °C 1019.0 hPa WNW 11.1 km/h 14.5 km/h 78% 0.0 mm 257 W/m2
11:17 12.3 °C 8.6 °C 1019.3 hPa West 13 km/h 14.5 km/h 78% 0.0 mm 227 W/m2
11:22 12.2 °C 8.5 °C 1019.3 hPa WNW 6.4 km/h 14.5 km/h 78% 0.0 mm 251 W/m2
11:27 12.2 °C 8.9 °C 1019.3 hPa NW 6.4 km/h 11.3 km/h 80% 0.0 mm 308 W/m2
11:32 12.4 °C 8.7 °C 1019.3 hPa WSW 11.1 km/h 19.3 km/h 78% 0.0 mm 302 W/m2
11:37 12.4 °C 8.7 °C 1019.0 hPa NW 6.4 km/h 11.3 km/h 78% 0.0 mm 162 W/m2
11:42 12.5 °C 8.8 °C 1019.3 hPa WSW 7.9 km/h 19.3 km/h 78% 0.0 mm 137 W/m2
11:47 12.5 °C 9 °C 1019.3 hPa WNW 4.7 km/h 6.4 km/h 79% 0.0 mm 341 W/m2
11:52 12.6 °C 9.1 °C 1019.3 hPa NW 3.2 km/h 11.3 km/h 79% 0.0 mm 364 W/m2
11:57 12.8 °C 9.2 °C 1019.3 hPa WSW 6.4 km/h 17.7 km/h 79% 0.0 mm 448 W/m2
12:02 13.1 °C 9.4 °C 1019.3 hPa NNW 1.4 km/h 11.3 km/h 78% 0.0 mm 923 W/m2
12:07 13.4 °C 9.3 °C 1019.3 hPa West 9.7 km/h 17.7 km/h 76% 0.0 mm 192 W/m2
12:12 13.6 °C 9.4 °C 1019.0 hPa WNW 7.9 km/h 12.9 km/h 76% 0.0 mm 1000 W/m2
12:17 14 °C 9.2 °C 1019.3 hPa West 9.7 km/h 17.7 km/h 73% 0.0 mm 1021 W/m2
12:22 14.1 °C 9.1 °C 1019.0 hPa West 11.1 km/h 19.3 km/h 72% 0.0 mm 294 W/m2
12:27 14.3 °C 9.5 °C 1019.0 hPa NW 4.7 km/h 8 km/h 73% 0.0 mm 234 W/m2
12:32 14.5 °C 9.3 °C 1019.0 hPa West 4.7 km/h 12.9 km/h 71% 0.0 mm 997 W/m2
12:37 14.8 °C 9 °C 1019.0 hPa West 16.3 km/h 17.7 km/h 68% 0.0 mm 1109 W/m2
12:42 14.6 °C 9 °C 1019.0 hPa West 4.7 km/h 14.5 km/h 69% 0.0 mm 415 W/m2
12:47 14.8 °C 9.4 °C 1019.0 hPa NNW 3.2 km/h 12.9 km/h 70% 0.0 mm 1113 W/m2
12:52 15 °C 9.6 °C 1019.0 hPa West 11.1 km/h 14.5 km/h 70% 0.0 mm 309 W/m2
12:57 14.9 °C 9.3 °C 1019.3 hPa WNW 6.4 km/h 16.1 km/h 69% 0.0 mm 359 W/m2
13:02 14.9 °C 9 °C 1019.3 hPa WNW 14.3 km/h 19.3 km/h 68% 0.0 mm 237 W/m2
13:07 14.6 °C 9 °C 1019.3 hPa WSW 6.4 km/h 20.9 km/h 69% 0.0 mm 251 W/m2
13:12 14.4 °C 9 °C 1019.3 hPa NW 6.4 km/h 14.5 km/h 70% 0.0 mm 271 W/m2
13:17 14.4 °C 9.2 °C 1019.3 hPa WNW 13 km/h 14.5 km/h 71% 0.0 mm 169 W/m2
13:22 14.3 °C 9.1 °C 1019.3 hPa WNW 7.9 km/h 16.1 km/h 71% 0.0 mm 246 W/m2
13:27 14.4 °C 9.6 °C 1019.3 hPa WNW 11.1 km/h 16.1 km/h 73% 0.0 mm 1018 W/m2
13:32 14.4 °C 9 °C 1019.3 hPa WNW 11.1 km/h 19.3 km/h 70% 0.0 mm 977 W/m2
13:37 14.7 °C 9.7 °C 1019.0 hPa West 9.7 km/h 14.5 km/h 72% 0.0 mm 951 W/m2
13:42 15 °C 9.8 °C 1019.0 hPa NNW 9.7 km/h 19.3 km/h 71% 0.0 mm 967 W/m2
13:47 15.2 °C 10 °C 1019.0 hPa NNW 7.9 km/h 17.7 km/h 71% 0.0 mm 949 W/m2
13:52 15.3 °C 10.1 °C 1019.0 hPa WNW 17.7 km/h 17.7 km/h 71% 0.0 mm 988 W/m2
13:57 15.4 °C 9.7 °C 1019.0 hPa West 13 km/h 22.5 km/h 69% 0.0 mm 1125 W/m2
14:02 15.7 °C 10 °C 1019.0 hPa NW 9.7 km/h 16.1 km/h 69% 0.0 mm 997 W/m2
14:07 16 °C 10.3 °C 1019.0 hPa West 11.1 km/h 22.5 km/h 69% 0.0 mm 1069 W/m2
14:12 16.3 °C 9.7 °C 1019.0 hPa West 13 km/h 12.9 km/h 65% 0.0 mm 1157 W/m2
14:17 16.6 °C 9.8 °C 1019.0 hPa WNW 13 km/h 22.5 km/h 64% 0.0 mm 1290 W/m2
14:22 16.9 °C 10.3 °C 1019.0 hPa West 11.1 km/h 14.5 km/h 65% 0.0 mm 956 W/m2
14:27 16.9 °C 9.6 °C 1019.0 hPa West 6.4 km/h 19.3 km/h 62% 0.0 mm 895 W/m2
14:32 16.6 °C 9.3 °C 1019.0 hPa NW 7.9 km/h 19.3 km/h 62% 0.0 mm 304 W/m2
14:37 16.4 °C 9.3 °C 1019.0 hPa WNW 19.5 km/h 19.3 km/h 63% 0.0 mm 304 W/m2
14:42 16.4 °C 9.1 °C 1019.0 hPa NW 17.7 km/h 19.3 km/h 62% 0.0 mm 1299 W/m2
14:47 16.6 °C 9.5 °C 1019.0 hPa SW 11.1 km/h 16.1 km/h 63% 0.0 mm 1299 W/m2
14:52 16.6 °C 9 °C 1019.3 hPa NW 9.7 km/h 19.3 km/h 61% 0.0 mm 431 W/m2
14:57 16.4 °C 9.1 °C 1019.0 hPa West 6.4 km/h 17.7 km/h 62% 0.0 mm 577 W/m2
15:02 16.6 °C 9.5 °C 1019.0 hPa WNW 16.3 km/h 17.7 km/h 63% 0.0 mm 816 W/m2
15:07 16.4 °C 9.3 °C 1019.0 hPa SW 7.9 km/h 17.7 km/h 63% 0.0 mm 531 W/m2
15:12 16.4 °C 9.3 °C 1019.3 hPa WNW 13 km/h 22.5 km/h 63% 0.0 mm 476 W/m2
15:17 16.2 °C 8.9 °C 1019.0 hPa NW 20.9 km/h 24.1 km/h 62% 0.0 mm 503 W/m2
15:22 16.2 °C 9.1 °C 1019.3 hPa NNW 9.7 km/h 16.1 km/h 63% 0.0 mm 541 W/m2
15:27 16.3 °C 9.5 °C 1019.3 hPa West 11.1 km/h 16.1 km/h 64% 0.0 mm 1018 W/m2
15:32 16.8 °C 9.2 °C 1019.0 hPa West 6.4 km/h 14.5 km/h 61% 0.0 mm 1004 W/m2
15:37 17.2 °C 9.4 °C 1019.3 hPa WNW 6.4 km/h 16.1 km/h 60% 0.0 mm 833 W/m2
15:42 17.3 °C 9.5 °C 1019.0 hPa WNW 9.7 km/h 16.1 km/h 60% 0.0 mm 960 W/m2
15:47 17.3 °C 9 °C 1019.3 hPa West 9.7 km/h 20.9 km/h 58% 0.0 mm 471 W/m2
15:52 17.4 °C 9.1 °C 1019.3 hPa West 14.3 km/h 19.3 km/h 58% 0.0 mm 990 W/m2
15:57 17.3 °C 8.4 °C 1019.3 hPa West 11.1 km/h 24.1 km/h 56% 0.0 mm 213 W/m2
16:02 17.1 °C 8.5 °C 1019.3 hPa NW 6.4 km/h 19.3 km/h 57% 0.0 mm 1000 W/m2
16:07 17.2 °C 9.1 °C 1019.3 hPa North 3.2 km/h 12.9 km/h 59% 0.0 mm 986 W/m2
16:12 17.7 °C 9.1 °C 1019.3 hPa WSW 11.1 km/h 19.3 km/h 57% 0.0 mm 925 W/m2
16:17 17.8 °C 8.6 °C 1019.3 hPa NNE 6.4 km/h 24.1 km/h 55% 0.0 mm 951 W/m2
16:22 17.9 °C 9 °C 1019.3 hPa West 9.7 km/h 16.1 km/h 56% 0.0 mm 954 W/m2
16:27 17.7 °C 9.1 °C 1019.3 hPa WSW 16.3 km/h 19.3 km/h 57% 0.0 mm 585 W/m2
16:32 17.5 °C 8.6 °C 1019.3 hPa NW 6.4 km/h 19.3 km/h 56% 0.0 mm 840 W/m2
16:37 17.6 °C 8.7 °C 1019.3 hPa West 17.7 km/h 27.4 km/h 56% 0.0 mm 777 W/m2
16:42 17.6 °C 9 °C 1019.3 hPa West 11.1 km/h 22.5 km/h 57% 0.0 mm 780 W/m2
16:47 17.1 °C 8.5 °C 1019.3 hPa WNW 6.4 km/h 25.7 km/h 57% 0.0 mm 420 W/m2
16:52 17.1 °C 9.5 °C 1019.3 hPa NW 19.5 km/h 19.3 km/h 61% 0.0 mm 752 W/m2
16:57 17.2 °C 9.1 °C 1019.3 hPa WNW 16.3 km/h 24.1 km/h 59% 0.0 mm 740 W/m2
17:02 17.3 °C 9.5 °C 1019.3 hPa WNW 7.9 km/h 17.7 km/h 60% 0.0 mm 761 W/m2
17:07 17.3 °C 9.2 °C 1019.3 hPa NW 6.4 km/h 24.1 km/h 59% 0.0 mm 824 W/m2
17:12 17.3 °C 9 °C 1019.3 hPa NW 14.3 km/h 20.9 km/h 58% 0.0 mm 311 W/m2
17:17 17.1 °C 9 °C 1019.3 hPa NW 6.4 km/h 14.5 km/h 59% 0.0 mm 557 W/m2
17:22 17 °C 8.7 °C 1019.6 hPa WNW 6.4 km/h 19.3 km/h 58% 0.0 mm 673 W/m2
17:27 17.2 °C 9.1 °C 1019.6 hPa NNW 13 km/h 17.7 km/h 59% 0.0 mm 673 W/m2
17:32 17.3 °C 9.2 °C 1019.6 hPa WNW 4.7 km/h 12.9 km/h 59% 0.0 mm 385 W/m2
17:37 17.2 °C 8.6 °C 1019.6 hPa NNW 13 km/h 16.1 km/h 57% 0.0 mm 251 W/m2
17:42 17.1 °C 8.3 °C 1019.3 hPa NW 6.4 km/h 12.9 km/h 56% 0.0 mm 278 W/m2
17:47 16.9 °C 8.3 °C 1019.6 hPa WNW 13 km/h 17.7 km/h 57% 0.0 mm 225 W/m2
17:52 16.8 °C 8.2 °C 1019.6 hPa NW 4.7 km/h 12.9 km/h 57% 0.0 mm 220 W/m2
17:57 16.9 °C 9.1 °C 1019.6 hPa West 16.3 km/h 17.7 km/h 60% 0.0 mm 227 W/m2
18:02 16.7 °C 8.9 °C 1019.6 hPa WSW 6.4 km/h 12.9 km/h 60% 0.0 mm 213 W/m2
18:07 16.7 °C 9.1 °C 1019.6 hPa West 6.4 km/h 17.7 km/h 61% 0.0 mm 221 W/m2
18:12 16.7 °C 9.1 °C 1019.6 hPa WNW 4.7 km/h 17.7 km/h 61% 0.0 mm 287 W/m2
18:17 16.7 °C 9.1 °C 1019.6 hPa WNW 6.4 km/h 17.7 km/h 61% 0.0 mm 172 W/m2
18:22 16.6 °C 9.3 °C 1019.6 hPa WNW 4.7 km/h 11.3 km/h 62% 0.0 mm 125 W/m2
18:27 16.4 °C 9.3 °C 1019.6 hPa WNW 6.4 km/h 11.3 km/h 63% 0.0 mm 125 W/m2
18:32 16.5 °C 9.4 °C 1019.3 hPa WNW 9.7 km/h 11.3 km/h 63% 0.0 mm 181 W/m2
18:37 16.6 °C 9.3 °C 1019.3 hPa NW 4.7 km/h 16.1 km/h 62% 0.0 mm 171 W/m2
18:42 16.7 °C 9.1 °C 1019.3 hPa WNW 3.2 km/h 6.4 km/h 61% 0.0 mm 162 W/m2
18:47 16.7 °C 9.4 °C 1019.3 hPa WNW 6.4 km/h 16.1 km/h 62% 0.0 mm 153 W/m2
18:52 16.8 °C 9.7 °C 1019.3 hPa WSW 9.7 km/h 11.3 km/h 63% 0.0 mm 380 W/m2
18:58 16.8 °C 9.5 °C 1019.3 hPa WNW 4.7 km/h 6.4 km/h 62% 0.0 mm 130 W/m2
19:03 16.8 °C 9 °C 1019.3 hPa West 9.7 km/h 14.5 km/h 60% 0.0 mm 320 W/m2
19:08 17.1 °C 9 °C 1019.3 hPa WNW 6.4 km/h 9.7 km/h 59% 0.0 mm 169 W/m2
19:13 17.2 °C 9.6 °C 1019.3 hPa WNW 3.2 km/h 16.1 km/h 61% 0.0 mm 297 W/m2
19:18 17.1 °C 9.5 °C 1019.3 hPa WSW 6.4 km/h 12.9 km/h 61% 0.0 mm 120 W/m2
19:23 16.7 °C 9.1 °C 1019.3 hPa West 9.7 km/h 16.1 km/h 61% 0.0 mm 111 W/m2
19:28 16.5 °C 9.2 °C 1019.3 hPa West 4.7 km/h 11.3 km/h 62% 0.0 mm 102 W/m2
19:33 16.3 °C 9.2 °C 1019.3 hPa WNW 3.2 km/h 14.5 km/h 63% 0.0 mm 84 W/m2
19:38 16.3 °C 9.7 °C 1019.3 hPa West 3.2 km/h 6.4 km/h 65% 0.0 mm 76 W/m2
19:43 16.2 °C 9.6 °C 1019.3 hPa WNW 6.4 km/h 9.7 km/h 65% 0.0 mm 72 W/m2
19:48 16.1 °C 9.7 °C 1019.3 hPa NNW 6.4 km/h 12.9 km/h 66% 0.0 mm 54 W/m2
19:53 15.9 °C 9.6 °C 1019.3 hPa WSW 6.4 km/h 9.7 km/h 66% 0.0 mm 44 W/m2
19:58 15.8 °C 9.7 °C 1019.3 hPa WNW 4.7 km/h 6.4 km/h 67% 0.0 mm 37 W/m2
20:03 15.7 °C 9.6 °C 1019.3 hPa WSW 6.4 km/h 12.9 km/h 67% 0.0 mm 40 W/m2
20:08 15.7 °C 9.8 °C 1019.3 hPa WNW 3.2 km/h 9.7 km/h 68% 0.0 mm 44 W/m2
20:13 15.6 °C 9.7 °C 1019.6 hPa WNW 3.2 km/h 12.9 km/h 68% 0.0 mm 120 W/m2
20:18 15.7 °C 9.8 °C 1019.6 hPa West 9.7 km/h 11.3 km/h 68% 0.0 mm 70 W/m2
20:23 15.7 °C 10 °C 1019.6 hPa WSW 6.4 km/h 6.4 km/h 69% 0.0 mm 125 W/m2
20:28 15.8 °C 10.1 °C 1019.6 hPa West 3.2 km/h 11.3 km/h 69% 0.0 mm 47 W/m2
20:33 15.8 °C 10.1 °C 1019.6 hPa NW 7.9 km/h 11.3 km/h 69% 0.0 mm 74 W/m2
20:38 15.8 °C 10.1 °C 1019.6 hPa WNW 4.7 km/h 8 km/h 69% 0.0 mm 72 W/m2
20:43 15.7 °C 10 °C 1019.6 hPa WSW 11.1 km/h 11.3 km/h 69% 0.0 mm 63 W/m2
20:48 15.7 °C 10 °C 1019.6 hPa WNW 6.4 km/h 6.4 km/h 69% 0.0 mm 53 W/m2
20:53 15.6 °C 10.1 °C 1019.6 hPa West 3.2 km/h 9.7 km/h 70% 0.0 mm 51 W/m2
20:58 15.6 °C 10.1 °C 1019.6 hPa West 4.7 km/h 9.7 km/h 70% 0.0 mm 44 W/m2
21:03 15.4 °C 10 °C 1019.6 hPa WSW 4.7 km/h 4.8 km/h 70% 0.0 mm 21 W/m2
21:08 15.2 °C 10 °C 1019.6 hPa West 3.2 km/h 9.7 km/h 71% 0.0 mm 14 W/m2
21:13 14.9 °C 9.7 °C 1019.6 hPa WNW 4.7 km/h 6.4 km/h 71% 0.0 mm 11 W/m2
21:18 14.7 °C 9.7 °C 1019.6 hPa West 4.7 km/h 6.4 km/h 72% 0.0 mm 7 W/m2
21:23 14.4 °C 9.6 °C 1019.6 hPa WSW 4.7 km/h 11.3 km/h 73% 0.0 mm 5 W/m2
21:28 14.3 °C 9.5 °C 1019.6 hPa West 3.2 km/h 4.8 km/h 73% 0.0 mm 0 W/m2
21:33 14.1 °C 9.3 °C 1019.6 hPa Calm   11.3 km/h 73% 0.0 mm 0 W/m2
21:38 13.9 °C 9.3 °C 1020.0 hPa West 4.7 km/h 4.8 km/h 74% 0.0 mm 0 W/m2
21:43 13.8 °C 9.2 °C 1020.0 hPa West 4.7 km/h 6.4 km/h 74% 0.0 mm 0 W/m2
21:48 13.8 °C 9.2 °C 1020.0 hPa West 4.7 km/h 6.4 km/h 74% 0.0 mm 0 W/m2
21:53 13.7 °C 9.1 °C 1020.0 hPa West 3.2 km/h 3.2 km/h 74% 0.0 mm 0 W/m2
21:58 13.6 °C 9.3 °C 1020.0 hPa Calm   1.6 km/h 75% 0.0 mm 0 W/m2
22:03 13.4 °C 9.3 °C 1020.0 hPa West 3.2 km/h 3.2 km/h 76% 0.0 mm 0 W/m2
22:08 13.2 °C 9.3 °C 1020.3 hPa West 3.2 km/h 6.4 km/h 77% 0.0 mm 0 W/m2
22:13 13.1 °C 9.2 °C 1020.3 hPa West 1.4 km/h 3.2 km/h 77% 0.0 mm 0 W/m2
22:18 13.1 °C 9.2 °C 1020.3 hPa WNW 3.2 km/h 6.4 km/h 77% 0.0 mm 0 W/m2
22:23 13.1 °C 9.2 °C 1020.3 hPa West 3.2 km/h 4.8 km/h 77% 0.0 mm 0 W/m2
22:28 13 °C 9.3 °C 1020.3 hPa West 1.4 km/h 1.6 km/h 78% 0.0 mm 0 W/m2
22:33 12.9 °C 9.2 °C 1020.7 hPa Calm   4.8 km/h 78% 0.0 mm 0 W/m2
22:38 12.7 °C 9.2 °C 1020.7 hPa West 1.4 km/h 1.6 km/h 79% 0.0 mm 0 W/m2
22:43 12.4 °C 9 °C 1020.7 hPa West 1.4 km/h 1.6 km/h 80% 0.0 mm 0 W/m2
22:48 12.2 °C 9 °C 1020.7 hPa Calm   1.6 km/h 81% 0.0 mm 0 W/m2
22:53 12 °C 9 °C 1020.7 hPa West 3.2 km/h 3.2 km/h 82% 0.0 mm 0 W/m2
22:58 11.8 °C 9 °C 1020.7 hPa Calm   3.2 km/h 83% 0.0 mm 0 W/m2
23:03 11.7 °C 8.9 °C 1020.7 hPa West 1.4 km/h 1.6 km/h 83% 0.0 mm 0 W/m2
23:08 11.6 °C 9 °C 1020.7 hPa Calm     84% 0.0 mm 0 W/m2
23:13 11.4 °C 9 °C 1020.7 hPa West 1.4 km/h 3.2 km/h 85% 0.0 mm 0 W/m2
23:18 11.3 °C 8.9 °C 1020.7 hPa West 1.4 km/h 3.2 km/h 85% 0.0 mm 0 W/m2
23:23 11.2 °C 8.9 °C 1020.7 hPa West 1.4 km/h 3.2 km/h 86% 0.0 mm 0 W/m2
23:28 11.1 °C 8.8 °C 1021.0 hPa WNW 1.4 km/h 4.8 km/h 86% 0.0 mm 0 W/m2
23:33 11.3 °C 9 °C 1021.0 hPa WNW 3.2 km/h 3.2 km/h 86% 0.0 mm 0 W/m2
23:38 11.3 °C 9 °C 1021.0 hPa WNW 3.2 km/h 3.2 km/h 86% 0.0 mm 0 W/m2
23:43 11.3 °C 9 °C 1021.0 hPa West 3.2 km/h 4.8 km/h 86% 0.0 mm 0 W/m2
23:48 11.3 °C 9 °C 1021.0 hPa West 1.4 km/h 4.8 km/h 86% 0.0 mm 0 W/m2
23:53 11.3 °C 8.9 °C 1021.0 hPa West 3.2 km/h 4.8 km/h 85% 0.0 mm 0 W/m2
23:58 11.4 °C 9 °C 1021.0 hPa WSW 3.2 km/h 6.4 km/h 85% 0.0 mm 0 W/m2
Juneau County Weather
Compliments of Weather Underground - 4 mb